TS90 weather

Bayless Airport
Rosharon, Texas, United States

Public forecast

Using degrees Fahrenheit for public forecast. Weather courtesy of forecast.io.

METAR (pilot weather report)

Closest report is Houston Southwest Airport, 6.7 nm (12.3 km) NNW. Retrieved 2019/07/17 12:35 UTC (0 seconds ago):

KAXH 171235Z AUTO 00000KT 5SM BR SCT015 25/25 A3005 RMK AO2 T02530252

TAF (pilot weather forecast)

Closest forecast is William P Hobby Airport, 16.6 nm (30.8 km) NNE. Retrieved 2019/07/17 12:24 UTC (0 seconds ago):

TAF KHOU 171122Z 1712/1812 17006KT P6SM SCT015 SCT025 FM171600 17011KT P6SM SCT040 FM180100 16007KT P6SM FEW030 SCT250 FM180900 17003KT P6SM SCT020